Time;durP1;ratioP1;P1;durP2;ratioP2;P2;SDS_P1;SDS_P2;PMS_P1;PMS_P2;Temp;Humidity;BMP_temperature;BMP_pressure;BME280_temperature;BME280_humidity;BME280_pressure;Samples;Min_cycle;Max_cycle;Signal;HPM_P1;HPM_P2
2021/01/14 00:00:25;;;;;;;2.83;0.85;;;;;;;;;;4959786;28;20078;-82
2021/01/14 00:02:52;;;;;;;1.63;0.70;;;;;;;;;;4959727;28;20376;-83
2021/01/14 00:05:18;;;;;;;7.32;1.60;;;;;;;;;;4959763;28;20035;-87
2021/01/14 00:07:44;;;;;;;2.60;1.00;;;;;;;;;;4959494;28;20053;-82
2021/01/14 00:10:11;;;;;;;4.47;1.10;;;;;;;;;;4959245;28;20031;-83
2021/01/14 00:12:37;;;;;;;3.72;1.45;;;;;;;;;;4959638;28;20550;-83
2021/01/14 00:15:05;;;;;;;2.15;0.85;;;;;;;;;;4959352;28;20073;-83
2021/01/14 00:17:31;;;;;;;1.85;1.08;;;;;;;;;;4959376;28;20034;-89
2021/01/14 00:19:58;;;;;;;6.35;1.10;;;;;;;;;;4960275;28;20022;-84
2021/01/14 00:22:24;;;;;;;3.75;1.02;;;;;;;;;;4960561;28;20058;-84
2021/01/14 00:24:50;;;;;;;3.85;0.98;;;;;;;;;;4959819;28;20026;-91
2021/01/14 00:27:16;;;;;;;4.25;1.08;;;;;;;;;;4959299;28;20035;-84
2021/01/14 00:29:42;;;;;;;2.92;1.00;;;;;;;;;;4959203;28;20117;-83
2021/01/14 00:32:10;;;;;;;4.68;1.33;;;;;;;;;;4976450;28;20495;-83
2021/01/14 00:34:37;;;;;;;4.03;1.10;;;;;;;;;;4958985;28;20023;-84
2021/01/14 00:39:52;;;;;;;1.27;0.80;;;;;;;;;;4976575;28;20041;-84
2021/01/14 00:42:18;;;;;;;6.05;1.10;;;;;;;;;;4959218;28;20054;-83
2021/01/14 00:44:44;;;;;;;2.35;0.98;;;;;;;;;;4958958;28;20404;-83
2021/01/14 00:47:10;;;;;;;2.17;0.90;;;;;;;;;;4959203;28;20038;-90
2021/01/14 00:49:37;;;;;;;2.75;0.88;;;;;;;;;;4958839;28;20130;-83
2021/01/14 00:52:03;;;;;;;1.65;0.70;;;;;;;;;;4958947;28;20026;-83
2021/01/14 00:54:29;;;;;;;1.80;0.80;;;;;;;;;;4958802;28;20156;-83
2021/01/14 00:56:55;;;;;;;4.65;1.17;;;;;;;;;;4970607;28;20416;-82
2021/01/14 00:59:21;;;;;;;2.03;0.95;;;;;;;;;;4966028;28;20023;-82
2021/01/14 01:01:47;;;;;;;2.20;1.05;;;;;;;;;;4973756;28;20533;-82
2021/01/14 01:04:13;;;;;;;5.70;0.88;;;;;;;;;;4958643;28;20041;-83
2021/01/14 01:06:40;;;;;;;4.40;0.82;;;;;;;;;;4958710;28;20334;-83
2021/01/14 01:09:10;;;;;;;2.85;0.95;;;;;;;;;;4970129;28;20035;-83
2021/01/14 01:11:37;;;;;;;3.20;0.98;;;;;;;;;;4939214;29;20034;-82
2021/01/14 01:14:04;;;;;;;2.05;0.95;;;;;;;;;;4939638;29;20114;-82
2021/01/14 01:16:30;;;;;;;2.40;1.10;;;;;;;;;;4942563;29;20030;-83
2021/01/14 01:18:56;;;;;;;5.30;1.02;;;;;;;;;;4939072;29;20074;-82
2021/01/14 01:21:23;;;;;;;2.45;1.02;;;;;;;;;;4939023;29;20091;-82
2021/01/14 01:23:49;;;;;;;2.35;1.17;;;;;;;;;;4938687;29;20054;-82
2021/01/14 01:26:16;;;;;;;2.53;1.00;;;;;;;;;;4938747;29;20043;-82
2021/01/14 01:28:42;;;;;;;1.73;0.80;;;;;;;;;;4938992;29;20042;-83
2021/01/14 01:31:10;;;;;;;2.20;0.98;;;;;;;;;;4940420;28;20059;-83
2021/01/14 01:33:36;;;;;;;2.88;0.82;;;;;;;;;;4957883;28;20522;-83
2021/01/14 01:36:02;;;;;;;2.50;1.00;;;;;;;;;;4957786;28;20432;-83
2021/01/14 01:38:28;;;;;;;4.53;1.25;;;;;;;;;;4957907;28;20035;-83
2021/01/14 01:41:02;;;;;;;2.78;1.23;;;;;;;;;;4958390;28;20022;-83
2021/01/14 01:43:28;;;;;;;2.03;0.90;;;;;;;;;;4957719;28;20067;-83
2021/01/14 01:45:54;;;;;;;3.33;1.33;;;;;;;;;;4974999;28;20039;-79
2021/01/14 01:48:21;;;;;;;3.80;1.00;;;;;;;;;;4957729;28;20031;-82
2021/01/14 01:50:48;;;;;;;2.63;1.40;;;;;;;;;;4957582;28;20042;-82
2021/01/14 01:53:14;;;;;;;2.65;1.20;;;;;;;;;;4974820;28;20022;-82
2021/01/14 01:55:44;;;;;;;4.47;1.50;;;;;;;;;;4957584;28;20033;-81
2021/01/14 01:58:11;;;;;;;5.53;1.70;;;;;;;;;;4974711;28;20031;-83
2021/01/14 02:00:37;;;;;;;11.52;2.00;;;;;;;;;;4957501;28;20391;-83
2021/01/14 02:03:04;;;;;;;8.52;1.70;;;;;;;;;;4974798;28;20030;-82
2021/01/14 02:05:30;;;;;;;4.50;1.35;;;;;;;;;;4957460;28;20070;-82
2021/01/14 02:07:59;;;;;;;4.95;1.77;;;;;;;;;;4974830;28;20034;-82
2021/01/14 02:10:29;;;;;;;5.18;1.60;;;;;;;;;;4957421;28;20113;-82
2021/01/14 02:13:02;;;;;;;3.97;1.80;;;;;;;;;;4957308;28;20030;-82
2021/01/14 02:15:30;;;;;;;5.93;2.08;;;;;;;;;;4957371;28;20368;-82
2021/01/14 02:17:57;;;;;;;3.20;1.63;;;;;;;;;;4957147;28;20066;-82
2021/01/14 02:20:23;;;;;;;6.88;1.95;;;;;;;;;;4957412;28;20031;-82
2021/01/14 02:22:57;;;;;;;4.00;1.85;;;;;;;;;;4956964;28;20527;-80
2021/01/14 02:25:24;;;;;;;4.68;1.70;;;;;;;;;;4940970;28;20047;-82
2021/01/14 02:27:51;;;;;;;4.75;1.52;;;;;;;;;;4957538;28;20034;-82
2021/01/14 02:30:17;;;;;;;5.78;1.90;;;;;;;;;;4956866;28;20035;-82
2021/01/14 02:32:44;;;;;;;3.75;1.55;;;;;;;;;;4957231;28;20058;-82
2021/01/14 02:35:10;;;;;;;3.53;1.75;;;;;;;;;;4974510;28;20054;-82
2021/01/14 02:37:36;;;;;;;4.63;1.80;;;;;;;;;;4974310;28;20041;-82
2021/01/14 02:40:03;;;;;;;3.75;1.60;;;;;;;;;;4956850;28;20763;-83
2021/01/14 02:42:29;;;;;;;4.20;1.70;;;;;;;;;;4957011;28;20047;-82
2021/01/14 02:44:55;;;;;;;4.65;2.00;;;;;;;;;;4949221;29;20050;-83
2021/01/14 02:47:22;;;;;;;4.03;1.92;;;;;;;;;;4955070;29;20027;-82
2021/01/14 02:49:56;;;;;;;4.20;1.75;;;;;;;;;;4955106;29;20028;-83
2021/01/14 02:52:23;;;;;;;4.15;1.90;;;;;;;;;;4937684;29;20160;-83
2021/01/14 02:54:49;;;;;;;3.45;1.58;;;;;;;;;;4937993;29;20028;-82
2021/01/14 02:57:19;;;;;;;5.63;1.70;;;;;;;;;;4938279;29;20133;-84
2021/01/14 02:59:46;;;;;;;5.15;1.35;;;;;;;;;;4937744;29;20500;-82
2021/01/14 03:02:12;;;;;;;5.18;1.85;;;;;;;;;;4937576;29;20388;-82
2021/01/14 03:04:38;;;;;;;5.20;2.10;;;;;;;;;;4937784;29;20027;-84
2021/01/14 03:07:04;;;;;;;5.35;1.80;;;;;;;;;;4955466;29;20031;-82
2021/01/14 03:09:30;;;;;;;5.40;2.20;;;;;;;;;;4938511;29;20069;-83
2021/01/14 03:11:56;;;;;;;4.50;2.00;;;;;;;;;;4941847;29;20503;-83
2021/01/14 03:14:22;;;;;;;6.28;1.83;;;;;;;;;;4941569;29;20034;-83
2021/01/14 03:16:48;;;;;;;4.88;2.20;;;;;;;;;;4941480;29;20037;-82
2021/01/14 03:19:14;;;;;;;4.97;2.00;;;;;;;;;;4959058;29;20102;-84
2021/01/14 03:21:40;;;;;;;7.45;1.90;;;;;;;;;;4958557;29;20050;-81
2021/01/14 03:24:07;;;;;;;5.18;1.90;;;;;;;;;;4941099;29;20031;-82
2021/01/14 03:26:36;;;;;;;3.33;1.80;;;;;;;;;;4940903;29;20054;-82
2021/01/14 03:29:02;;;;;;;4.38;2.15;;;;;;;;;;4940761;29;20436;-81
2021/01/14 03:31:28;;;;;;;3.83;1.75;;;;;;;;;;4940823;29;20460;-83
2021/01/14 03:33:54;;;;;;;5.00;2.25;;;;;;;;;;4940952;29;20027;-83
2021/01/14 03:36:20;;;;;;;4.93;2.08;;;;;;;;;;4940832;29;20477;-82
2021/01/14 03:38:47;;;;;;;7.00;2.80;;;;;;;;;;4941013;29;20029;-83
2021/01/14 03:41:15;;;;;;;5.00;2.60;;;;;;;;;;4958139;29;20039;-83
2021/01/14 03:43:41;;;;;;;5.28;2.25;;;;;;;;;;4941723;29;20042;-82
2021/01/14 03:46:20;;;;;;;5.30;2.58;;;;;;;;;;4940949;29;20190;-83
2021/01/14 03:48:46;;;;;;;4.65;2.50;;;;;;;;;;4941690;29;20050;-83
2021/01/14 03:51:19;;;;;;;5.13;2.33;;;;;;;;;;4940905;29;20023;-83
2021/01/14 03:53:48;;;;;;;5.85;2.88;;;;;;;;;;4940830;29;20023;-82
2021/01/14 03:56:14;;;;;;;7.40;2.60;;;;;;;;;;4941344;29;20090;-84
2021/01/14 03:58:41;;;;;;;8.30;2.90;;;;;;;;;;4940807;29;20023;-82
2021/01/14 04:01:07;;;;;;;6.90;2.42;;;;;;;;;;4940865;29;20491;-83
2021/01/14 04:03:33;;;;;;;9.38;2.90;;;;;;;;;;4940441;29;20480;-83
2021/01/14 04:06:00;;;;;;;7.20;2.88;;;;;;;;;;4943236;28;20119;-82
2021/01/14 04:08:26;;;;;;;5.57;2.80;;;;;;;;;;4959869;28;20065;-83
2021/01/14 04:10:52;;;;;;;5.65;2.92;;;;;;;;;;4977291;28;20030;-83
2021/01/14 04:13:18;;;;;;;9.10;2.90;;;;;;;;;;4953185;28;20026;-81
2021/01/14 04:15:44;;;;;;;9.35;3.38;;;;;;;;;;4974434;28;20185;-89
2021/01/14 04:18:10;;;;;;;5.82;3.33;;;;;;;;;;4960833;28;20023;-81
2021/01/14 04:20:38;;;;;;;7.65;3.25;;;;;;;;;;4959652;28;20118;-82
2021/01/14 04:23:04;;;;;;;5.15;2.35;;;;;;;;;;4959664;28;20022;-84
2021/01/14 04:25:31;;;;;;;5.72;2.28;;;;;;;;;;4948908;28;20035;-81
2021/01/14 04:28:00;;;;;;;4.63;2.42;;;;;;;;;;4947391;29;20050;-80
2021/01/14 04:30:32;;;;;;;5.20;2.40;;;;;;;;;;4940348;29;20035;-83
2021/01/14 04:33:09;;;;;;;4.85;1.75;;;;;;;;;;4958165;29;20067;-83
2021/01/14 04:35:35;;;;;;;5.95;1.95;;;;;;;;;;4940867;29;20121;-91
2021/01/14 04:38:02;;;;;;;4.35;1.80;;;;;;;;;;4940972;29;20469;-82
2021/01/14 04:40:28;;;;;;;3.85;2.15;;;;;;;;;;4940905;29;20037;-91
2021/01/14 04:42:54;;;;;;;3.67;1.30;;;;;;;;;;4941191;29;20034;-93
2021/01/14 04:45:21;;;;;;;3.25;1.27;;;;;;;;;;4941243;29;20032;-93
2021/01/14 04:47:50;;;;;;;1.95;1.10;;;;;;;;;;4941182;29;20028;-83
2021/01/14 04:50:17;;;;;;;5.43;1.13;;;;;;;;;;4941086;29;20027;-93
2021/01/14 04:52:43;;;;;;;4.55;1.30;;;;;;;;;;4940674;29;20074;-93
2021/01/14 04:55:15;;;;;;;3.13;1.10;;;;;;;;;;4941277;29;20035;-92
2021/01/14 04:57:45;;;;;;;1.55;0.73;;;;;;;;;;4940204;29;20054;-82
2021/01/14 05:00:12;;;;;;;1.60;0.80;;;;;;;;;;4939402;29;20480;-80
2021/01/14 05:03:01;;;;;;;1.63;0.80;;;;;;;;;;4939251;29;20043;-84
2021/01/14 05:05:30;;;;;;;1.73;0.90;;;;;;;;;;4939341;29;20043;-89
2021/01/14 05:08:07;;;;;;;2.58;0.68;;;;;;;;;;4940090;29;20499;-83
2021/01/14 05:10:34;;;;;;;2.30;0.98;;;;;;;;;;4939505;29;20038;-82
2021/01/14 05:13:00;;;;;;;1.67;0.73;;;;;;;;;;4939332;29;20386;-82
2021/01/14 05:15:27;;;;;;;3.80;0.90;;;;;;;;;;4956602;29;20424;-82
2021/01/14 05:17:54;;;;;;;2.15;0.68;;;;;;;;;;4939056;29;20024;-82
2021/01/14 05:20:21;;;;;;;1.25;0.65;;;;;;;;;;4940052;29;20034;-91
2021/01/14 05:22:48;;;;;;;3.58;0.93;;;;;;;;;;4940735;29;20032;-92
2021/01/14 05:25:14;;;;;;;1.50;0.57;;;;;;;;;;4946142;29;20031;-92
2021/01/14 05:27:41;;;;;;;2.45;0.93;;;;;;;;;;4944945;29;20531;-91
2021/01/14 05:30:11;;;;;;;1.45;0.32;;;;;;;;;;4940658;28;20480;-80
2021/01/14 05:32:38;;;;;;;2.30;0.60;;;;;;;;;;4942289;28;20150;-86
2021/01/14 05:35:06;;;;;;;2.67;0.60;;;;;;;;;;4939415;29;20058;-83
2021/01/14 05:37:33;;;;;;;2.88;0.47;;;;;;;;;;4942618;29;20030;-81
2021/01/14 05:40:00;;;;;;;0.82;0.57;;;;;;;;;;4939856;29;20038;-81
2021/01/14 05:42:27;;;;;;;1.50;0.73;;;;;;;;;;4943775;29;20027;-82
2021/01/14 05:44:53;;;;;;;4.90;0.75;;;;;;;;;;4939067;29;20459;-83
2021/01/14 05:47:20;;;;;;;1.02;0.60;;;;;;;;;;4939392;29;20038;-83
2021/01/14 05:49:55;;;;;;;0.65;0.45;;;;;;;;;;4938619;29;20027;-92
2021/01/14 05:52:23;;;;;;;2.78;0.80;;;;;;;;;;4939244;29;20432;-82
2021/01/14 05:54:57;;;;;;;4.85;0.93;;;;;;;;;;4956191;29;20027;-82
2021/01/14 05:57:28;;;;;;;2.92;1.08;;;;;;;;;;4939283;29;20027;-82
2021/01/14 05:59:57;;;;;;;1.88;0.68;;;;;;;;;;4939338;29;20056;-91
2021/01/14 06:02:30;;;;;;;2.22;0.75;;;;;;;;;;4938929;29;20027;-83
2021/01/14 06:04:56;;;;;;;2.80;0.60;;;;;;;;;;4938677;29;20035;-81
2021/01/14 06:07:23;;;;;;;0.55;0.30;;;;;;;;;;4938184;29;20389;-86
2021/01/14 06:09:49;;;;;;;2.35;0.95;;;;;;;;;;4938206;29;20027;-85
2021/01/14 06:12:15;;;;;;;0.95;0.40;;;;;;;;;;4939201;29;20035;-89
2021/01/14 06:14:42;;;;;;;1.00;0.57;;;;;;;;;;4940188;29;20027;-90
2021/01/14 06:17:09;;;;;;;2.08;0.63;;;;;;;;;;4940284;29;20034;-85
2021/01/14 06:19:36;;;;;;;2.75;1.08;;;;;;;;;;4939569;29;20050;-78
2021/01/14 06:22:02;;;;;;;2.53;1.42;;;;;;;;;;4943366;28;20141;-84
2021/01/14 06:24:39;;;;;;;0.88;0.47;;;;;;;;;;4973405;28;20023;-80
2021/01/14 06:27:05;;;;;;;6.55;0.63;;;;;;;;;;4974349;28;20440;-79
2021/01/14 06:29:54;;;;;;;5.88;1.17;;;;;;;;;;4957143;28;20027;-87
2021/01/14 06:32:20;;;;;;;1.48;0.65;;;;;;;;;;4956463;28;20126;-86
2021/01/14 06:34:48;;;;;;;1.52;0.93;;;;;;;;;;4956961;28;20038;-87
2021/01/14 06:37:19;;;;;;;1.42;0.80;;;;;;;;;;4974323;28;20031;-86
2021/01/14 06:39:49;;;;;;;0.98;0.50;;;;;;;;;;4956947;28;20388;-86
2021/01/14 06:42:23;;;;;;;1.92;1.02;;;;;;;;;;4956704;28;20031;-86
2021/01/14 06:44:49;;;;;;;;;;;;;;;;;;4957179;28;20031;-85
2021/01/14 06:47:21;;;;;;;2.35;0.85;;;;;;;;;;4974316;28;19960;-80
2021/01/14 06:49:55;;;;;;;5.88;1.50;;;;;;;;;;4957150;28;20031;-87
2021/01/14 06:52:23;;;;;;;3.00;2.03;;;;;;;;;;4957142;28;20031;-87
2021/01/14 06:54:50;;;;;;;2.08;0.88;;;;;;;;;;4957233;28;20522;-88
2021/01/14 06:57:16;;;;;;;2.47;1.08;;;;;;;;;;4974421;28;20031;-80
2021/01/14 06:59:43;;;;;;;1.15;0.55;;;;;;;;;;4956746;28;20046;-79
2021/01/14 07:02:29;;;;;;;1.48;0.57;;;;;;;;;;4973866;28;20472;-82
2021/01/14 07:05:04;;;;;;;3.85;1.00;;;;;;;;;;4956303;28;20456;-81
2021/01/14 07:07:50;;;;;;;1.35;0.60;;;;;;;;;;4957197;28;20026;-82
2021/01/14 07:10:17;;;;;;;2.38;1.13;;;;;;;;;;4974654;28;20034;-83
2021/01/14 07:12:44;;;;;;;2.47;1.10;;;;;;;;;;4973891;28;20031;-82
2021/01/14 07:15:17;;;;;;;4.53;1.08;;;;;;;;;;4978612;28;20106;-82
2021/01/14 07:17:45;;;;;;;2.25;0.70;;;;;;;;;;4974103;28;20023;-82
2021/01/14 07:20:12;;;;;;;2.88;0.95;;;;;;;;;;4956069;28;20396;-82
2021/01/14 07:22:58;;;;;;;7.47;1.40;;;;;;;;;;4956490;28;20193;-83
2021/01/14 07:25:25;;;;;;;2.25;0.85;;;;;;;;;;4973665;28;20491;-82
2021/01/14 07:27:51;;;;;;;10.65;1.58;;;;;;;;;;4973889;28;20023;-82
2021/01/14 07:30:18;;;;;;;3.65;1.05;;;;;;;;;;4956154;28;20085;-82
2021/01/14 07:32:51;;;;;;;6.70;1.02;;;;;;;;;;4969625;28;20043;-82
2021/01/14 07:35:36;;;;;;;3.70;1.30;;;;;;;;;;4954549;29;20035;-82
2021/01/14 07:38:03;;;;;;;5.10;1.63;;;;;;;;;;4937270;29;20511;-82
2021/01/14 07:40:30;;;;;;;2.78;1.00;;;;;;;;;;4937042;29;20050;-83
2021/01/14 07:42:57;;;;;;;2.97;1.17;;;;;;;;;;4954426;29;20055;-83
2021/01/14 07:45:24;;;;;;;2.83;1.13;;;;;;;;;;4936997;29;20552;-83
2021/01/14 07:47:50;;;;;;;3.30;1.35;;;;;;;;;;4937188;29;20104;-79
2021/01/14 07:50:19;;;;;;;3.15;1.33;;;;;;;;;;4954420;29;20023;-82
2021/01/14 07:52:46;;;;;;;2.75;1.13;;;;;;;;;;4954680;29;20031;-83
2021/01/14 07:55:12;;;;;;;3.20;1.63;;;;;;;;;;4954019;28;20075;-83
2021/01/14 07:57:46;;;;;;;4.45;1.17;;;;;;;;;;4955724;28;20054;-83
2021/01/14 08:00:22;;;;;;;3.22;1.42;;;;;;;;;;4977177;28;20018;-81
2021/01/14 08:03:06;;;;;;;3.95;1.50;;;;;;;;;;4959161;28;20395;-82
2021/01/14 08:05:56;;;;;;;5.90;1.52;;;;;;;;;;4959484;28;20480;-83
2021/01/14 08:08:30;;;;;;;4.40;1.23;;;;;;;;;;4959191;28;20488;-82
2021/01/14 08:11:12;;;;;;;3.80;1.05;;;;;;;;;;4959342;28;20027;-83
2021/01/14 08:13:56;;;;;;;1.55;0.80;;;;;;;;;;4958904;28;20066;-82
2021/01/14 08:16:32;;;;;;;2.13;0.77;;;;;;;;;;4959000;28;20019;-82
2021/01/14 08:19:12;;;;;;;1.35;0.70;;;;;;;;;;4958512;28;20495;-83
2021/01/14 08:21:38;;;;;;;1.23;0.40;;;;;;;;;;4978466;28;20030;-82
2021/01/14 08:24:04;;;;;;;1.85;0.70;;;;;;;;;;4995939;28;20027;-87
2021/01/14 08:26:31;;;;;;;2.15;0.70;;;;;;;;;;4978699;28;20030;-85
2021/01/14 08:28:59;;;;;;;3.22;0.82;;;;;;;;;;4978848;28;20077;-86
2021/01/14 08:31:37;;;;;;;1.30;0.45;;;;;;;;;;4995834;28;20042;-87
2021/01/14 08:34:06;;;;;;;6.03;1.20;;;;;;;;;;4978697;28;20030;-86
2021/01/14 08:36:40;;;;;;;2.20;1.13;;;;;;;;;;4978568;28;20365;-86
2021/01/14 08:39:09;;;;;;;2.15;1.02;;;;;;;;;;4978654;28;20065;-86
2021/01/14 08:41:38;;;;;;;3.72;1.02;;;;;;;;;;4973902;28;20038;-86
2021/01/14 08:44:05;;;;;;;1.95;0.63;;;;;;;;;;4939641;29;20023;-87
2021/01/14 08:46:38;;;;;;;3.25;0.95;;;;;;;;;;4939413;29;20409;-87
2021/01/14 08:49:14;;;;;;;5.57;0.93;;;;;;;;;;4939593;29;20035;-85
2021/01/14 08:51:41;;;;;;;1.38;0.52;;;;;;;;;;4939421;29;20042;-86
2021/01/14 08:54:08;;;;;;;2.10;0.70;;;;;;;;;;4950003;28;20045;-87
2021/01/14 08:56:34;;;;;;;1.85;0.75;;;;;;;;;;4946976;29;20035;-83
2021/01/14 08:59:22;;;;;;;1.20;0.50;;;;;;;;;;4956812;29;20034;-85
2021/01/14 09:01:48;;;;;;;3.65;0.88;;;;;;;;;;4960570;28;20034;-85
2021/01/14 09:04:14;;;;;;;2.70;0.63;;;;;;;;;;4948337;28;20070;-82
2021/01/14 09:06:43;;;;;;;2.33;0.55;;;;;;;;;;4948910;28;20046;-85
2021/01/14 09:09:10;;;;;;;1.10;0.60;;;;;;;;;;4947425;28;20020;-84
2021/01/14 09:11:37;;;;;;;1.33;0.60;;;;;;;;;;4964927;28;20523;-84
2021/01/14 09:14:08;;;;;;;1.65;0.70;;;;;;;;;;4948916;28;20069;-87
2021/01/14 09:16:35;;;;;;;1.92;0.63;;;;;;;;;;4952828;28;20050;-84
2021/01/14 09:19:01;;;;;;;1.67;0.60;;;;;;;;;;4974634;28;20035;-83
2021/01/14 09:21:42;;;;;;;2.40;0.90;;;;;;;;;;4995938;28;20518;-85
2021/01/14 09:24:10;;;;;;;4.43;1.13;;;;;;;;;;4996378;28;20101;-82
2021/01/14 09:26:46;;;;;;;6.95;1.02;;;;;;;;;;4994686;28;20066;-80
2021/01/14 09:29:12;;;;;;;4.65;1.08;;;;;;;;;;4977523;28;20026;-80
2021/01/14 09:31:39;;;;;;;3.78;1.20;;;;;;;;;;4977198;28;20111;-80
2021/01/14 09:34:05;;;;;;;3.05;0.90;;;;;;;;;;4994569;28;20037;-81
2021/01/14 09:36:33;;;;;;;6.45;1.58;;;;;;;;;;4977514;28;20391;-82
2021/01/14 09:39:08;;;;;;;1.95;0.80;;;;;;;;;;4977295;28;20029;-82
2021/01/14 09:41:38;;;;;;;2.63;1.10;;;;;;;;;;4977176;28;20525;-82
2021/01/14 09:44:13;;;;;;;3.38;1.33;;;;;;;;;;4977138;28;20030;-83
2021/01/14 09:46:43;;;;;;;4.25;1.10;;;;;;;;;;4976809;28;20132;-82
2021/01/14 09:49:11;;;;;;;1.63;0.90;;;;;;;;;;4994536;28;20038;-82
2021/01/14 09:51:37;;;;;;;3.88;1.02;;;;;;;;;;4977027;28;20034;-83
2021/01/14 09:54:07;;;;;;;4.35;1.15;;;;;;;;;;4976831;28;20062;-83
2021/01/14 09:56:40;;;;;;;2.90;1.00;;;;;;;;;;4977885;28;20483;-82
2021/01/14 09:59:13;;;;;;;3.42;0.90;;;;;;;;;;4976870;28;20026;-82
2021/01/14 10:01:42;;;;;;;2.28;0.80;;;;;;;;;;4976710;28;20053;-82
2021/01/14 10:04:15;;;;;;;1.92;0.80;;;;;;;;;;4994110;28;20049;-82
2021/01/14 10:06:43;;;;;;;3.42;0.60;;;;;;;;;;4976754;28;20414;-86
2021/01/14 10:09:11;;;;;;;3.25;0.95;;;;;;;;;;4994416;28;20026;-86
2021/01/14 10:11:37;;;;;;;5.97;1.08;;;;;;;;;;4976794;28;20030;-83
2021/01/14 10:14:05;;;;;;;3.85;0.98;;;;;;;;;;4977217;28;20026;-86
2021/01/14 10:16:31;;;;;;;1.30;0.47;;;;;;;;;;4976475;28;20085;-86
2021/01/14 10:19:21;;;;;;;3.03;0.93;;;;;;;;;;4974593;28;20431;-83
2021/01/14 10:21:49;;;;;;;1.67;0.65;;;;;;;;;;4975022;28;20035;-82
2021/01/14 10:24:33;;;;;;;1.55;0.50;;;;;;;;;;4961594;28;20026;-81
2021/01/14 10:27:19;;;;;;;3.08;1.00;;;;;;;;;;4971322;28;20050;-86
2021/01/14 10:29:45;;;;;;;4.88;1.17;;;;;;;;;;4959996;28;20027;-86
2021/01/14 10:32:13;;;;;;;2.13;0.70;;;;;;;;;;4956930;28;20050;-87
2021/01/14 10:34:43;;;;;;;4.80;0.60;;;;;;;;;;4957673;28;20031;-85
2021/01/14 10:37:20;;;;;;;2.25;0.80;;;;;;;;;;4957105;28;20053;-81
2021/01/14 10:39:46;;;;;;;2.35;0.70;;;;;;;;;;4956671;28;20027;-81
2021/01/14 10:42:27;;;;;;;1.30;0.52;;;;;;;;;;4955963;28;20604;-80
2021/01/14 10:44:54;;;;;;;2.35;1.02;;;;;;;;;;4969983;28;20030;-80
2021/01/14 10:47:22;;;;;;;3.92;0.88;;;;;;;;;;4958247;28;20496;-80
2021/01/14 10:49:48;;;;;;;5.95;1.63;;;;;;;;;;4976074;28;20027;-81
2021/01/14 10:52:14;;;;;;;2.70;0.70;;;;;;;;;;4983952;28;20034;-81
2021/01/14 10:54:40;;;;;;;2.92;1.10;;;;;;;;;;4976759;28;20030;-80
2021/01/14 10:57:07;;;;;;;3.83;1.00;;;;;;;;;;4954746;28;20026;-84
2021/01/14 10:59:33;;;;;;;3.78;1.25;;;;;;;;;;4970195;28;20036;-83
2021/01/14 11:02:06;;;;;;;3.42;0.98;;;;;;;;;;4956655;28;20054;-83
2021/01/14 11:04:33;;;;;;;3.53;0.70;;;;;;;;;;4956789;28;20030;-82
2021/01/14 11:06:59;;;;;;;2.95;0.80;;;;;;;;;;4973984;28;20480;-82
2021/01/14 11:09:25;;;;;;;2.47;0.70;;;;;;;;;;4974010;28;20106;-82
2021/01/14 11:11:51;;;;;;;2.20;0.70;;;;;;;;;;4956555;28;20443;-81
2021/01/14 11:14:18;;;;;;;4.45;0.73;;;;;;;;;;4973967;28;20464;-81
2021/01/14 11:16:44;;;;;;;1.42;0.60;;;;;;;;;;4973995;28;20037;-82
2021/01/14 11:19:10;;;;;;;1.42;0.65;;;;;;;;;;4960391;28;20023;-87
2021/01/14 11:21:37;;;;;;;1.83;0.60;;;;;;;;;;4975958;28;20077;-85
2021/01/14 11:24:06;;;;;;;1.45;0.52;;;;;;;;;;4975858;28;20022;-85
2021/01/14 11:26:32;;;;;;;3.42;0.70;;;;;;;;;;4976009;28;20125;-86
2021/01/14 11:28:58;;;;;;;2.90;0.70;;;;;;;;;;4976720;28;20479;-84
2021/01/14 11:31:25;;;;;;;1.58;0.75;;;;;;;;;;4977704;28;20054;-88
2021/01/14 11:33:52;;;;;;;3.55;0.70;;;;;;;;;;4979886;28;20033;-81
2021/01/14 11:36:20;;;;;;;2.30;0.70;;;;;;;;;;4983002;28;20398;-82
2021/01/14 11:38:46;;;;;;;1.67;0.60;;;;;;;;;;4979542;28;20033;-81
2021/01/14 11:41:16;;;;;;;2.78;0.70;;;;;;;;;;4979194;28;20125;-80
2021/01/14 11:43:42;;;;;;;1.30;0.50;;;;;;;;;;4979544;28;20018;-82
2021/01/14 11:46:08;;;;;;;2.80;0.90;;;;;;;;;;4979520;28;20042;-82
2021/01/14 11:48:35;;;;;;;2.65;0.93;;;;;;;;;;4980108;28;20364;-82
2021/01/14 11:51:01;;;;;;;1.23;0.60;;;;;;;;;;4996950;28;20092;-81
2021/01/14 11:53:27;;;;;;;1.67;0.80;;;;;;;;;;4996560;28;20036;-81
2021/01/14 11:55:53;;;;;;;3.92;0.98;;;;;;;;;;4979370;28;20068;-81
2021/01/14 11:58:20;;;;;;;3.03;0.85;;;;;;;;;;4979710;28;20055;-81
2021/01/14 12:00:46;;;;;;;2.67;1.40;;;;;;;;;;4979208;28;20154;-80
2021/01/14 12:03:12;;;;;;;1.60;0.70;;;;;;;;;;4996645;28;20093;-79
2021/01/14 12:05:38;;;;;;;3.47;1.20;;;;;;;;;;4978787;28;20069;-79
2021/01/14 12:08:04;;;;;;;2.25;0.93;;;;;;;;;;4997689;28;20046;-80
2021/01/14 12:10:30;;;;;;;1.70;0.60;;;;;;;;;;4981346;28;20498;-78
2021/01/14 12:12:56;;;;;;;3.03;1.00;;;;;;;;;;4978916;28;20033;-80
2021/01/14 12:15:22;;;;;;;5.78;1.17;;;;;;;;;;4979204;28;20026;-80
2021/01/14 12:17:48;;;;;;;2.67;0.60;;;;;;;;;;4978620;28;20491;-80
2021/01/14 12:20:15;;;;;;;5.35;1.38;;;;;;;;;;4966217;28;20126;-79
2021/01/14 12:22:42;;;;;;;4.40;0.98;;;;;;;;;;4976966;28;20026;-80
2021/01/14 12:25:08;;;;;;;7.70;1.50;;;;;;;;;;4976472;28;20027;-79
2021/01/14 12:27:34;;;;;;;3.28;1.20;;;;;;;;;;4959141;28;20070;-79
2021/01/14 12:30:00;;;;;;;4.40;1.23;;;;;;;;;;4959268;28;20093;-81
2021/01/14 12:32:27;;;;;;;4.55;1.15;;;;;;;;;;4959331;28;20055;-81
2021/01/14 12:34:53;;;;;;;8.50;1.67;;;;;;;;;;4959174;28;20506;-79
2021/01/14 12:37:20;;;;;;;2.95;1.05;;;;;;;;;;4976238;28;20033;-80
2021/01/14 12:39:46;;;;;;;2.50;1.00;;;;;;;;;;4958936;28;20033;-79
2021/01/14 12:42:12;;;;;;;3.40;1.00;;;;;;;;;;4976229;28;20122;-79
2021/01/14 12:44:39;;;;;;;4.97;1.65;;;;;;;;;;4958983;28;20035;-79
2021/01/14 12:47:05;;;;;;;3.53;1.25;;;;;;;;;;4959069;28;20117;-81
2021/01/14 12:49:31;;;;;;;5.38;1.17;;;;;;;;;;4958628;28;20027;-80
2021/01/14 12:51:57;;;;;;;2.30;0.98;;;;;;;;;;4958685;28;20117;-78
2021/01/14 12:54:24;;;;;;;4.38;1.30;;;;;;;;;;4957465;28;20039;-78
2021/01/14 12:56:50;;;;;;;4.28;1.70;;;;;;;;;;4962832;28;20027;-80
2021/01/14 12:59:17;;;;;;;3.85;1.30;;;;;;;;;;4965111;28;20026;-81
2021/01/14 13:01:43;;;;;;;1.88;0.93;;;;;;;;;;4951372;29;20035;-82
2021/01/14 13:04:11;;;;;;;5.80;1.30;;;;;;;;;;4943335;29;20143;-79
2021/01/14 13:06:38;;;;;;;2.65;0.98;;;;;;;;;;4956406;28;20045;-80
2021/01/14 13:09:06;;;;;;;6.18;2.10;;;;;;;;;;4941346;29;20023;-80
2021/01/14 13:11:33;;;;;;;3.60;1.35;;;;;;;;;;4956638;29;20070;-80
2021/01/14 13:13:59;;;;;;;2.13;1.15;;;;;;;;;;4944248;29;20031;-79
2021/01/14 13:16:39;;;;;;;2.92;1.10;;;;;;;;;;4939387;29;20082;-79
2021/01/14 13:19:08;;;;;;;6.78;2.28;;;;;;;;;;4962225;28;20530;-80
2021/01/14 13:21:35;;;;;;;2.88;1.20;;;;;;;;;;4977532;28;20034;-80
2021/01/14 13:24:02;;;;;;;2.00;0.88;;;;;;;;;;4977395;28;20037;-79
2021/01/14 13:26:28;;;;;;;3.80;0.80;;;;;;;;;;5001420;28;20034;-79
2021/01/14 13:28:54;;;;;;;5.05;1.90;;;;;;;;;;4977080;28;20035;-80
2021/01/14 13:31:21;;;;;;;3.90;1.23;;;;;;;;;;4976844;28;20061;-82
2021/01/14 13:33:47;;;;;;;3.80;1.42;;;;;;;;;;4977155;28;20042;-80
2021/01/14 13:36:13;;;;;;;6.55;1.58;;;;;;;;;;4977010;28;20031;-80
2021/01/14 13:38:41;;;;;;;3.85;1.25;;;;;;;;;;4977271;28;20026;-80
2021/01/14 13:41:08;;;;;;;3.53;1.38;;;;;;;;;;4977310;28;20120;-80
2021/01/14 13:43:34;;;;;;;3.60;1.50;;;;;;;;;;4977135;28;20030;-81
2021/01/14 13:46:00;;;;;;;3.63;1.85;;;;;;;;;;4977023;28;20034;-81
2021/01/14 13:48:27;;;;;;;5.18;1.48;;;;;;;;;;4976843;28;20426;-81
2021/01/14 13:50:53;;;;;;;2.28;1.15;;;;;;;;;;4977168;28;20041;-80
2021/01/14 13:53:19;;;;;;;5.40;1.98;;;;;;;;;;4976475;28;20049;-80
2021/01/14 13:55:45;;;;;;;3.17;0.90;;;;;;;;;;4976791;28;20030;-79
2021/01/14 13:58:12;;;;;;;2.28;0.98;;;;;;;;;;4976863;28;20027;-79
2021/01/14 14:00:47;;;;;;;5.13;1.42;;;;;;;;;;4976610;28;20022;-80
2021/01/14 14:03:14;;;;;;;4.72;1.50;;;;;;;;;;4976854;28;20026;-79
2021/01/14 14:05:46;;;;;;;2.28;1.13;;;;;;;;;;4976555;28;20121;-80
2021/01/14 14:08:12;;;;;;;3.95;1.15;;;;;;;;;;4993851;28;20104;-81
2021/01/14 14:10:42;;;;;;;2.55;1.15;;;;;;;;;;4976672;28;20030;-80
2021/01/14 14:13:08;;;;;;;2.92;1.38;;;;;;;;;;4976673;28;20034;-80
2021/01/14 14:15:34;;;;;;;4.35;1.75;;;;;;;;;;4955665;28;20024;-79
2021/01/14 14:18:00;;;;;;;1.88;0.95;;;;;;;;;;4938089;29;20158;-80
2021/01/14 14:20:26;;;;;;;4.07;1.55;;;;;;;;;;4951132;28;20387;-79
2021/01/14 14:22:52;;;;;;;12.05;1.75;;;;;;;;;;4957029;28;20031;-79
2021/01/14 14:25:19;;;;;;;3.20;1.42;;;;;;;;;;4967943;28;20479;-80
2021/01/14 14:27:45;;;;;;;5.78;1.27;;;;;;;;;;4975331;28;20057;-79
2021/01/14 14:30:11;;;;;;;2.17;1.25;;;;;;;;;;4965017;28;20023;-79
2021/01/14 14:32:37;;;;;;;3.00;1.27;;;;;;;;;;4965991;28;20503;-80
2021/01/14 14:35:04;;;;;;;3.00;1.40;;;;;;;;;;4963529;28;20041;-79
2021/01/14 14:37:30;;;;;;;3.47;1.88;;;;;;;;;;4959417;28;20067;-80
2021/01/14 14:39:56;;;;;;;3.25;1.30;;;;;;;;;;4947479;28;20054;-80
2021/01/14 14:42:22;;;;;;;2.67;1.15;;;;;;;;;;4953323;28;20475;-79
2021/01/14 14:44:48;;;;;;;2.53;1.20;;;;;;;;;;4940135;29;20032;-80
2021/01/14 14:47:15;;;;;;;6.03;1.90;;;;;;;;;;4954970;29;20377;-80
2021/01/14 14:49:42;;;;;;;2.33;1.27;;;;;;;;;;4955296;29;20030;-79
2021/01/14 14:52:08;;;;;;;3.65;1.70;;;;;;;;;;4937931;29;20027;-79